Time;durP1;ratioP1;P1;durP2;ratioP2;P2;SDS_P1;SDS_P2;PMS_P1;PMS_P2;Temp;Humidity;BMP_temperature;BMP_pressure;BME280_temperature;BME280_humidity;BME280_pressure;Samples;Min_cycle;Max_cycle;Signal;HPM_P1;HPM_P2
2023/10/29 00:01:57;;;;;;;;;0.50;0.50;;;;;12.95;83.51;97790.84;5077737;28;8831;-58
2023/10/29 00:04:25;;;;;;;;;0.50;0.50;;;;;12.96;83.86;97802.34;5077618;28;8856;-58
2023/10/29 00:06:54;;;;;;;;;1.00;1.00;;;;;12.97;83.72;97786.13;5076497;28;8846;-58
2023/10/29 00:09:21;;;;;;;;;0.50;0.50;;;;;13.01;83.62;97792.78;5075918;28;8986;-57
2023/10/29 00:11:49;;;;;;;;;1.00;1.00;;;;;13.04;83.94;97767.50;5077050;28;8924;-57
2023/10/29 00:14:17;;;;;;;;;1.00;1.00;;;;;13.05;83.41;97782.53;5077171;28;8859;-57
2023/10/29 00:16:44;;;;;;;;;0.25;0.25;;;;;13.08;83.62;97755.41;5076969;28;8840;-60
2023/10/29 00:19:12;;;;;;;;;0.00;0.00;;;;;13.08;83.95;97761.56;5076912;28;8824;-57
2023/10/29 00:21:40;;;;;;;;;0.00;0.00;;;;;13.14;83.68;97781.38;5077509;28;8873;-57
2023/10/29 00:24:07;;;;;;;;;0.00;0.00;;;;;13.19;83.45;97760.22;5077119;28;8850;-56
2023/10/29 00:26:35;;;;;;;;;0.00;0.00;;;;;13.19;82.87;97749.53;5077099;28;8850;-58
2023/10/29 00:29:03;;;;;;;;;0.00;0.00;;;;;13.19;83.25;97749.53;5077354;28;8852;-58
2023/10/29 00:31:32;;;;;;;;;0.00;0.00;;;;;13.18;83.20;97754.09;5076906;28;8857;-58
2023/10/29 00:33:59;;;;;;;;;1.00;0.50;;;;;13.21;83.17;97766.25;5077030;28;8820;-59
2023/10/29 00:36:27;;;;;;;;;0.00;0.00;;;;;13.23;83.50;97750.81;5077185;28;9563;-57
2023/10/29 00:38:55;;;;;;;;;3.00;3.00;;;;;13.26;83.01;97739.75;5077309;28;8828;-57
2023/10/29 00:41:23;;;;;;;;;0.00;0.00;;;;;13.28;83.35;97743.88;5077565;28;8839;-59
2023/10/29 00:43:51;;;;;;;;;0.00;0.00;;;;;13.29;83.35;97742.84;5076970;28;8832;-58
2023/10/29 00:46:18;;;;;;;;;0.00;0.00;;;;;13.32;83.26;97761.19;5077089;28;8820;-57
2023/10/29 00:48:46;;;;;;;;;1.00;0.75;;;;;13.35;83.22;97741.28;5076961;28;8864;-58
2023/10/29 00:51:14;;;;;;;;;0.00;0.00;;;;;13.35;82.94;97743.94;5077426;28;8820;-58
2023/10/29 00:53:41;;;;;;;;;1.00;1.00;;;;;13.39;82.85;97734.50;5076957;28;8875;-57
2023/10/29 00:56:09;;;;;;;;;0.50;0.50;;;;;13.42;82.46;97755.50;5077230;28;9543;-57
2023/10/29 00:58:37;;;;;;;;;0.50;0.00;;;;;13.45;82.55;97755.13;5077233;28;9517;-57
2023/10/29 01:01:05;;;;;;;;;0.50;0.50;;;;;13.47;82.90;97737.88;5077145;28;8947;-60
2023/10/29 01:03:33;;;;;;;;;3.00;3.00;;;;;13.55;82.47;97712.81;5076851;28;8970;-58
2023/10/29 01:06:01;;;;;;;;;0.00;0.00;;;;;13.60;81.75;97726.44;5076644;28;8922;-57
2023/10/29 01:08:29;;;;;;;;;0.00;0.00;;;;;13.64;82.55;97739.22;5076608;28;8824;-57
2023/10/29 01:10:56;;;;;;;;;0.00;0.00;;;;;13.68;81.76;97739.66;5076882;28;8970;-59
2023/10/29 01:13:24;;;;;;;;;0.20;0.20;;;;;13.74;81.81;97733.56;5076725;28;8828;-59
2023/10/29 01:15:51;;;;;;;;;1.00;1.00;;;;;13.74;82.25;97738.91;5077154;28;8887;-57
2023/10/29 01:18:19;;;;;;;;;0.60;0.40;;;;;13.69;82.11;97725.28;5076902;28;8900;-57
2023/10/29 01:20:47;;;;;;;;;1.00;1.00;;;;;13.67;81.91;97721.97;5077030;28;8921;-59
2023/10/29 01:23:14;;;;;;;;;0.50;0.50;;;;;13.69;81.74;97710.06;5076739;28;8820;-58
2023/10/29 01:25:43;;;;;;;;;0.75;0.50;;;;;13.71;81.67;97733.91;5076662;28;8839;-58
2023/10/29 01:28:10;;;;;;;;;0.00;0.00;;;;;13.75;82.26;97711.94;5076218;28;8831;-58
2023/10/29 01:30:38;;;;;;;;;0.00;0.00;;;;;13.77;81.47;97719.78;5076267;28;9536;-57
2023/10/29 01:33:05;;;;;;;;;0.00;0.00;;;;;13.76;81.37;97710.94;5075928;28;8847;-57
2023/10/29 01:35:33;;;;;;;;;1.00;1.00;;;;;13.66;81.87;97688.22;5076274;28;8820;-58
2023/10/29 01:38:01;;;;;;;;;0.00;0.00;;;;;13.53;82.27;97705.00;5075790;28;8844;-58
2023/10/29 01:40:29;;;;;;;;;0.80;0.00;;;;;13.46;82.70;97703.31;5075852;28;8827;-58
2023/10/29 01:42:57;;;;;;;;;0.00;0.00;;;;;13.42;82.53;97681.47;5076033;28;8816;-57
2023/10/29 01:45:24;;;;;;;;;0.60;0.60;;;;;13.44;83.06;97695.47;5076734;28;8852;-58
2023/10/29 01:47:52;;;;;;;;;0.40;0.40;;;;;13.50;82.78;97704.56;5076212;28;8826;-57
2023/10/29 01:50:20;;;;;;;;;0.00;0.00;;;;;13.60;82.03;97684.47;5076389;28;8832;-57
2023/10/29 01:52:48;;;;;;;;;0.00;0.00;;;;;13.69;81.95;97693.19;5076054;28;8856;-58
2023/10/29 01:55:16;;;;;;;;;1.00;0.00;;;;;13.76;81.46;97705.59;5075018;28;8812;-56
2023/10/29 01:57:43;;;;;;;;;0.60;0.00;;;;;13.83;81.30;97697.59;5074961;28;8909;-58
2023/10/29 02:00:11;;;;;;;;;0.00;0.00;;;;;13.87;80.40;97698.81;5074863;28;8844;-58
2023/10/29 02:02:39;;;;;;;;;1.00;1.00;;;;;13.94;81.03;97707.72;5074746;28;8821;-57
2023/10/29 02:05:07;;;;;;;;;1.00;1.00;;;;;13.99;80.72;97694.59;5074837;28;8828;-58
2023/10/29 02:07:34;;;;;;;;;0.60;0.20;;;;;14.06;80.75;97706.16;5074943;28;8872;-57
2023/10/29 02:10:02;;;;;;;;;0.60;0.00;;;;;14.05;80.31;97696.47;5075066;28;8836;-57
2023/10/29 02:12:29;;;;;;;;;0.00;0.00;;;;;13.94;80.83;97697.84;5075325;28;8873;-57
2023/10/29 02:14:57;;;;;;;;;0.00;0.00;;;;;13.79;80.92;97677.59;5075823;28;8837;-57
2023/10/29 02:17:27;;;;;;;;;1.00;0.00;;;;;13.70;81.35;97700.19;5075990;28;8840;-58
2023/10/29 02:19:55;;;;;;;;;0.60;0.00;;;;;13.59;81.64;97682.81;5075757;28;8817;-59
2023/10/29 02:22:23;;;;;;;;;0.00;0.00;;;;;13.54;81.87;97685.28;5075641;28;8824;-59
2023/10/29 02:24:51;;;;;;;;;0.00;0.00;;;;;13.50;82.44;97678.66;5076232;28;8836;-57
2023/10/29 02:27:18;;;;;;;;;0.00;0.00;;;;;13.47;82.62;97668.38;5063994;28;8803;-57
2023/10/29 02:29:46;;;;;;;;;0.00;0.00;;;;;13.46;82.47;97672.06;5056028;28;8826;-57
2023/10/29 02:32:14;;;;;;;;;0.60;0.60;;;;;13.46;82.11;97657.84;5059064;28;8952;-57
2023/10/29 02:34:41;;;;;;;;;0.00;0.00;;;;;13.48;82.15;97690.56;5059879;28;8842;-57
2023/10/29 02:37:09;;;;;;;;;0.50;0.50;;;;;13.51;82.95;97682.97;5059954;28;8818;-56
2023/10/29 02:39:36;;;;;;;;;0.00;0.00;;;;;13.54;82.24;97676.41;5059867;28;8838;-57
2023/10/29 02:42:04;;;;;;;;;0.00;0.00;;;;;13.49;82.27;97670.81;5059524;28;8818;-59
2023/10/29 02:44:31;;;;;;;;;0.00;0.00;;;;;13.35;82.65;97679.78;5059374;28;8868;-58
2023/10/29 02:46:59;;;;;;;;;1.00;1.00;;;;;13.24;83.04;97669.63;5059767;28;8921;-57
2023/10/29 02:49:27;;;;;;;;;1.00;1.00;;;;;13.16;83.63;97648.38;5074942;28;8821;-57
2023/10/29 02:51:55;;;;;;;;;0.80;0.80;;;;;13.09;83.29;97658.19;5079291;28;8842;-57
2023/10/29 02:54:22;;;;;;;;;0.00;0.00;;;;;13.03;83.91;97653.63;5079300;28;8813;-58
2023/10/29 02:56:50;;;;;;;;;0.00;0.00;;;;;12.99;83.61;97644.34;5079215;28;9579;-59
2023/10/29 02:59:17;;;;;;;;;0.00;0.00;;;;;12.96;83.73;97640.22;5078953;28;8828;-58
2023/10/29 03:01:45;;;;;;;;;0.80;0.40;;;;;12.96;84.62;97647.41;5079118;28;8846;-56
2023/10/29 03:04:12;;;;;;;;;0.00;0.00;;;;;12.96;84.54;97639.38;5079085;28;8820;-58
2023/10/29 03:06:41;;;;;;;;;0.00;0.00;;;;;12.97;84.59;97622.31;5079224;28;8843;-58
2023/10/29 03:09:09;;;;;;;;;0.50;0.50;;;;;12.97;84.01;97609.81;5079324;28;8945;-58
2023/10/29 03:11:37;;;;;;;;;0.00;0.00;;;;;13.00;84.53;97621.97;5078845;28;8840;-58
2023/10/29 03:14:04;;;;;;;;;0.25;0.00;;;;;13.00;84.36;97617.41;5079016;28;8825;-58
2023/10/29 03:16:32;;;;;;;;;0.00;0.00;;;;;13.04;83.88;97612.53;5078916;28;8862;-57
2023/10/29 03:19:00;;;;;;;;;0.00;0.00;;;;;13.10;84.54;97606.41;5079064;28;8913;-58
2023/10/29 03:21:28;;;;;;;;;0.00;0.00;;;;;13.20;84.53;97618.41;5079061;28;8836;-59
2023/10/29 03:23:55;;;;;;;;;0.75;0.75;;;;;13.31;83.56;97614.38;5079143;28;8828;-57
2023/10/29 03:26:23;;;;;;;;;0.25;0.25;;;;;13.40;83.51;97607.84;5078934;28;8808;-56
2023/10/29 03:28:50;;;;;;;;;0.40;0.40;;;;;13.46;83.05;97629.28;5078848;28;8891;-57
2023/10/29 03:31:18;;;;;;;;;0.50;0.00;;;;;13.50;83.16;97613.63;5078588;28;8848;-56
2023/10/29 03:33:47;;;;;;;;;0.00;0.00;;;;;13.52;83.31;97599.06;5078630;28;8844;-58
2023/10/29 03:36:15;;;;;;;;;0.00;0.00;;;;;13.54;83.33;97612.25;5078665;28;8823;-59
2023/10/29 03:38:42;;;;;;;;;0.00;0.00;;;;;13.57;83.03;97609.16;5078976;28;8827;-57
2023/10/29 03:41:10;;;;;;;;;0.00;0.00;;;;;13.59;82.78;97596.44;5078832;28;8950;-56
2023/10/29 03:43:37;;;;;;;;;0.00;0.00;;;;;13.60;83.31;97593.53;5078112;28;8843;-59
2023/10/29 03:46:05;;;;;;;;;0.00;0.00;;;;;13.61;82.41;97594.38;5078642;28;8862;-57
2023/10/29 03:48:32;;;;;;;;;0.00;0.00;;;;;13.61;82.97;97589.03;5078475;28;8954;-57
2023/10/29 03:51:00;;;;;;;;;0.00;0.00;;;;;13.61;82.44;97573.81;5078496;28;8840;-57
2023/10/29 03:53:28;;;;;;;;;0.00;0.00;;;;;13.62;82.33;97579.97;5078442;28;8892;-58
2023/10/29 03:56:00;;;;;;;;;1.00;0.40;;;;;13.64;82.43;97594.81;5078401;28;8875;-58
2023/10/29 03:58:28;;;;;;;;;0.00;0.00;;;;;13.67;82.75;97583.69;5078472;28;8908;-59
2023/10/29 04:00:56;;;;;;;;;0.00;0.00;;;;;13.69;82.35;97603.06;5078251;28;8822;-57
2023/10/29 04:03:24;;;;;;;;;0.00;0.00;;;;;13.72;82.37;97605.34;5078191;28;8836;-56
2023/10/29 04:05:51;;;;;;;;;0.00;0.00;;;;;13.75;81.95;97582.72;5077967;28;8862;-58
2023/10/29 04:08:19;;;;;;;;;0.00;0.00;;;;;13.77;82.63;97580.66;5078033;28;8842;-58
2023/10/29 04:10:47;;;;;;;;;0.00;0.00;;;;;13.81;82.23;97560.53;5077959;28;8836;-57
2023/10/29 04:13:14;;;;;;;;;0.00;0.00;;;;;13.83;82.00;97577.19;5078123;28;8861;-59
2023/10/29 04:15:42;;;;;;;;;1.50;1.50;;;;;13.87;81.77;97575.75;5077999;28;8961;-58
2023/10/29 04:18:09;;;;;;;;;0.00;0.00;;;;;13.88;82.04;97575.56;5077693;28;8878;-57
2023/10/29 04:20:37;;;;;;;;;0.00;0.00;;;;;13.91;81.79;97579.69;5077716;28;8831;-57
2023/10/29 04:23:05;;;;;;;;;0.00;0.00;;;;;13.94;81.65;97595.34;5078060;28;9575;-58
2023/10/29 04:25:32;;;;;;;;;0.00;0.00;;;;;13.96;81.63;97604.00;5077957;28;8839;-58
2023/10/29 04:28:00;;;;;;;;;0.00;0.00;;;;;13.97;81.99;97600.31;5077378;28;8828;-57
2023/10/29 04:30:27;;;;;;;;;0.20;0.20;;;;;14.00;81.19;97573.13;5078043;28;8820;-58
2023/10/29 04:32:55;;;;;;;;;0.00;0.00;;;;;14.02;81.60;97555.00;5077866;28;8816;-57
2023/10/29 04:35:23;;;;;;;;;0.00;0.00;;;;;14.04;80.99;97547.63;5077905;28;8812;-58
2023/10/29 04:37:50;;;;;;;;;0.80;0.80;;;;;14.06;81.38;97535.69;5077583;28;8905;-58
2023/10/29 04:40:18;;;;;;;;;0.60;0.00;;;;;14.09;80.46;97548.66;5077246;28;8844;-57
2023/10/29 04:42:46;;;;;;;;;0.00;0.00;;;;;14.12;80.76;97545.56;5077462;28;8820;-57
2023/10/29 04:45:14;;;;;;;;;0.00;0.00;;;;;14.15;81.12;97545.19;5077726;28;8837;-57
2023/10/29 04:47:42;;;;;;;;;0.00;0.00;;;;;14.20;80.64;97547.28;5077332;28;8836;-57
2023/10/29 04:50:09;;;;;;;;;2.20;1.00;;;;;14.23;80.37;97562.94;5076824;28;8853;-57
2023/10/29 04:52:37;;;;;;;;;0.00;0.00;;;;;14.26;80.73;97579.41;5090629;28;8834;-57
2023/10/29 04:55:05;;;;;;;;;0.00;0.00;;;;;14.26;80.74;97590.13;5097088;28;8822;-59
2023/10/29 04:57:32;;;;;;;;;0.00;0.00;;;;;14.30;80.11;97577.16;5097531;28;8953;-57
2023/10/29 05:00:00;;;;;;;;;0.00;0.00;;;;;14.35;80.23;97590.75;5097629;28;8842;-57
2023/10/29 05:02:29;;;;;;;;;0.00;0.00;;;;;14.37;79.94;97586.03;5097436;28;8822;-58
2023/10/29 05:04:56;;;;;;;;;0.00;0.00;;;;;14.38;80.08;97576.97;5097343;28;8822;-58
2023/10/29 05:07:25;;;;;;;;;1.00;0.00;;;;;14.37;79.81;97612.81;5097240;28;8806;-59
2023/10/29 05:09:52;;;;;;;;;0.00;0.00;;;;;14.38;79.66;97607.25;5097424;28;8818;-59
2023/10/29 05:12:20;;;;;;;;;0.00;0.00;;;;;14.40;79.70;97601.66;5097397;28;8849;-58
2023/10/29 05:14:50;;;;;;;;;0.00;0.00;;;;;14.42;80.00;97602.31;5097168;28;8838;-57
2023/10/29 05:17:18;;;;;;;;;0.00;0.00;;;;;14.44;79.58;97610.97;5097018;28;8821;-57
2023/10/29 05:19:46;;;;;;;;;0.00;0.00;;;;;14.46;79.63;97617.78;5096931;28;8810;-57
2023/10/29 05:22:14;;;;;;;;;0.00;0.00;;;;;14.48;79.37;97604.19;5096898;28;8841;-58
2023/10/29 05:24:42;;;;;;;;;0.00;0.00;;;;;14.51;79.47;97606.44;5096941;28;8894;-57
2023/10/29 05:27:09;;;;;;;;;0.00;0.00;;;;;14.52;79.24;97600.91;5086140;28;9485;-57
2023/10/29 05:29:37;;;;;;;;;0.00;0.00;;;;;14.52;79.39;97590.19;5076411;28;8819;-57
2023/10/29 05:32:04;;;;;;;;;0.20;0.20;;;;;14.52;78.80;97608.09;5076522;28;8839;-58
2023/10/29 05:34:32;;;;;;;;;0.00;0.00;;;;;14.54;79.03;97619.41;5076246;28;8870;-58
2023/10/29 05:36:59;;;;;;;;;0.00;0.00;;;;;14.55;79.04;97616.53;5076256;28;8878;-58
2023/10/29 05:39:27;;;;;;;;;0.00;0.00;;;;;14.54;79.24;97617.56;5076304;28;8819;-59
2023/10/29 05:41:55;;;;;;;;;0.00;0.00;;;;;14.60;78.65;97629.31;5095304;28;8814;-57
2023/10/29 05:44:22;;;;;;;;;0.00;0.00;;;;;14.63;78.86;97639.66;5090980;28;8826;-57
2023/10/29 05:46:50;;;;;;;;;0.00;0.00;;;;;14.65;78.81;97625.00;5095642;28;8846;-57
2023/10/29 05:49:17;;;;;;;;;0.00;0.00;;;;;14.70;78.17;97624.38;5095429;28;8818;-57
2023/10/29 05:51:45;;;;;;;;;0.00;0.00;;;;;14.68;78.39;97637.16;5095828;28;9448;-59
2023/10/29 05:54:13;;;;;;;;;0.00;0.00;;;;;14.67;78.47;97620.28;5095978;28;9552;-57
2023/10/29 05:56:40;;;;;;;;;0.00;0.00;;;;;14.67;78.14;97640.88;5095536;28;8822;-59
2023/10/29 05:59:08;;;;;;;;;0.00;0.00;;;;;14.69;78.34;97626.25;5095493;28;8810;-56
2023/10/29 06:01:38;;;;;;;;;0.00;0.00;;;;;14.68;78.26;97640.69;5095705;28;8791;-57
2023/10/29 06:04:05;;;;;;;;;0.00;0.00;;;;;14.69;78.42;97638.81;5095245;28;8830;-57
2023/10/29 06:06:34;;;;;;;;;0.00;0.00;;;;;14.68;78.36;97663.94;5094931;28;8814;-59
2023/10/29 06:09:02;;;;;;;;;0.00;0.00;;;;;14.60;78.18;97654.28;5094770;28;8834;-57
2023/10/29 06:11:47;;;;;;;;;0.00;0.00;;;;;14.53;78.41;97647.22;5095252;28;8822;-58
2023/10/29 06:14:15;;;;;;;;;0.00;0.00;;;;;14.48;78.72;97647.03;5096199;28;8964;-57
2023/10/29 06:16:42;;;;;;;;;0.00;0.00;;;;;14.46;78.95;97659.78;5096346;28;8822;-57
2023/10/29 06:19:11;;;;;;;;;0.00;0.00;;;;;14.46;78.65;97655.25;5096057;28;8814;-57
2023/10/29 06:21:38;;;;;;;;;0.00;0.00;;;;;14.47;78.60;97650.72;5096248;28;8863;-57
2023/10/29 06:24:06;;;;;;;;;0.00;0.00;;;;;14.47;78.24;97651.56;5096005;28;8836;-57
2023/10/29 06:26:34;;;;;;;;;0.60;0.60;;;;;14.47;78.78;97646.19;5089957;28;8815;-58
2023/10/29 06:29:02;;;;;;;;;0.00;0.00;;;;;14.49;78.26;97652.16;5075767;28;8836;-59
2023/10/29 06:31:31;;;;;;;;;0.00;0.00;;;;;14.46;78.19;97654.44;5075879;28;8840;-57
2023/10/29 06:33:59;;;;;;;;;0.40;0.40;;;;;14.46;78.17;97649.91;5075820;28;8843;-57
2023/10/29 06:36:26;;;;;;;;;0.00;0.00;;;;;14.46;78.22;97665.13;5076074;28;8859;-58
2023/10/29 06:38:55;;;;;;;;;0.00;0.00;;;;;14.45;78.24;97669.69;5075580;28;8820;-58
2023/10/29 06:41:22;;;;;;;;;0.00;0.00;;;;;14.47;78.69;97688.22;5075609;28;8820;-57
2023/10/29 06:43:50;;;;;;;;;0.00;0.00;;;;;14.46;78.73;97676.69;5075360;28;8919;-58
2023/10/29 06:46:18;;;;;;;;;0.00;0.00;;;;;14.46;78.12;97687.41;5075665;28;8892;-59
2023/10/29 06:48:45;;;;;;;;;0.00;0.00;;;;;14.47;78.43;97686.38;5075859;28;8820;-57
2023/10/29 06:51:14;;;;;;;;;0.20;0.20;;;;;14.47;78.08;97701.59;5075350;28;8828;-57
2023/10/29 06:53:41;;;;;;;;;0.00;0.00;;;;;14.50;78.13;97712.75;5075378;28;9540;-57
2023/10/29 06:56:10;;;;;;;;;0.00;0.00;;;;;14.55;77.95;97714.81;5074967;28;8854;-57
2023/10/29 06:58:38;;;;;;;;;0.00;0.00;;;;;14.56;77.37;97711.94;5075209;28;8824;-58
2023/10/29 07:01:06;;;;;;;;;0.00;0.00;;;;;14.58;78.21;97699.16;5074756;28;8820;-59
2023/10/29 07:03:33;;;;;;;;;0.00;0.00;;;;;14.60;77.36;97693.63;5074032;28;8831;-57
2023/10/29 07:06:01;;;;;;;;;0.00;0.00;;;;;14.62;77.48;97699.59;5074224;28;8856;-59
2023/10/29 07:08:29;;;;;;;;;0.00;0.00;;;;;14.64;77.68;97708.28;5073962;28;8824;-59
2023/10/29 07:10:57;;;;;;;;;0.00;0.00;;;;;14.66;77.26;97704.34;5074865;28;8824;-59
2023/10/29 07:13:25;;;;;;;;;0.00;0.00;;;;;14.67;76.89;97715.88;5074555;28;8873;-59
2023/10/29 07:15:53;;;;;;;;;0.00;0.00;;;;;14.68;77.03;97714.84;5075098;28;8854;-57
2023/10/29 07:18:21;;;;;;;;;0.40;0.40;;;;;14.70;77.03;97720.81;5078690;28;8828;-57
2023/10/29 07:20:48;;;;;;;;;1.00;0.60;;;;;14.72;76.93;97724.97;5078564;28;8831;-57
2023/10/29 07:23:16;;;;;;;;;0.00;0.00;;;;;14.76;76.78;97725.38;5077713;28;8889;-57
2023/10/29 07:25:44;;;;;;;;;0.00;0.00;;;;;14.79;76.18;97739.22;5078224;28;8840;-58
2023/10/29 07:28:11;;;;;;;;;0.00;0.00;;;;;14.81;75.99;97752.41;5077759;28;8836;-59
2023/10/29 07:30:39;;;;;;;;;0.00;0.00;;;;;14.84;76.31;97733.25;5078529;28;8828;-59
2023/10/29 07:33:07;;;;;;;;;0.00;0.00;;;;;14.86;75.92;97723.16;5078690;28;9512;-60
2023/10/29 07:35:35;;;;;;;;;0.00;0.00;;;;;14.84;76.26;97728.72;5078542;28;8831;-58
2023/10/29 07:38:03;;;;;;;;;0.00;0.00;;;;;14.85;75.84;97721.47;5078825;28;8960;-57
2023/10/29 07:40:30;;;;;;;;;0.00;0.00;;;;;14.88;75.82;97737.19;5078576;28;8966;-57
2023/10/29 07:42:58;;;;;;;;;0.00;0.00;;;;;14.89;75.66;97758.44;5078786;28;8825;-58
2023/10/29 07:45:27;;;;;;;;;0.00;0.00;;;;;14.89;75.98;97755.75;5078755;28;8879;-60
2023/10/29 07:47:54;;;;;;;;;0.00;0.00;;;;;14.92;75.71;97757.16;5078760;28;8824;-59
2023/10/29 07:50:22;;;;;;;;;0.00;0.00;;;;;14.92;75.48;97757.16;5078483;28;8877;-58
2023/10/29 07:52:50;;;;;;;;;1.00;0.00;;;;;14.89;75.67;97753.06;5078070;28;8856;-57
2023/10/29 07:55:18;;;;;;;;;0.00;0.00;;;;;14.89;75.60;97758.44;5078137;28;8836;-60
2023/10/29 07:57:48;;;;;;;;;0.00;0.00;;;;;14.89;75.61;97782.53;5078355;28;8817;-58
2023/10/29 08:00:16;;;;;;;;;0.00;0.00;;;;;14.90;74.79;97762.75;5078331;28;8954;-57
2023/10/29 08:02:44;;;;;;;;;0.00;0.00;;;;;14.88;75.31;97762.09;5077942;28;8824;-57
2023/10/29 08:05:11;;;;;;;;;0.00;0.00;;;;;14.87;75.20;97754.28;5077978;28;8843;-59
2023/10/29 08:07:39;;;;;;;;;0.00;0.00;;;;;14.87;75.20;97762.34;5078137;28;9529;-58
2023/10/29 08:10:08;;;;;;;;;0.00;0.00;;;;;14.87;74.84;97759.66;5077713;28;8816;-58
2023/10/29 08:12:35;;;;;;;;;0.00;0.00;;;;;14.90;74.84;97778.00;5077804;28;8840;-57
2023/10/29 08:15:03;;;;;;;;;0.00;0.00;;;;;14.96;74.61;97790.59;5077714;28;8844;-59
2023/10/29 08:17:31;;;;;;;;;0.00;0.00;;;;;15.08;74.03;97813.09;5077928;28;8970;-59
2023/10/29 08:19:59;;;;;;;;;0.00;0.00;;;;;15.23;73.72;97808.38;5078157;28;8832;-59
2023/10/29 08:22:27;;;;;;;;;0.00;0.00;;;;;15.37;73.22;97815.44;5077923;28;9482;-59
2023/10/29 08:24:55;;;;;;;;;0.00;0.00;;;;;15.44;73.64;97816.28;5077351;28;8943;-59
2023/10/29 08:27:23;;;;;;;;;0.00;0.00;;;;;15.51;72.80;97811.75;5076674;28;8896;-59
2023/10/29 08:29:51;;;;;;;;;0.00;0.00;;;;;15.56;72.39;97806.63;5076021;28;8848;-58
2023/10/29 08:32:19;;;;;;;;;0.00;0.00;;;;;15.57;72.93;97808.25;5077056;28;8828;-58
2023/10/29 08:34:47;;;;;;;;;0.00;0.00;;;;;15.58;72.93;97807.22;5076904;28;8875;-59
2023/10/29 08:37:15;;;;;;;;;0.00;0.00;;;;;15.58;72.87;97804.53;5076795;28;8828;-58
2023/10/29 08:39:43;;;;;;;;;0.00;0.00;;;;;15.58;72.76;97791.13;5076740;28;8965;-57
2023/10/29 08:42:11;;;;;;;;;0.00;0.00;;;;;15.58;72.66;97788.44;5075806;28;8831;-58
2023/10/29 08:44:39;;;;;;;;;0.00;0.00;;;;;15.57;73.03;97773.38;5076352;28;8867;-57
2023/10/29 08:47:08;;;;;;;;;0.00;0.00;;;;;15.58;72.43;97783.91;5076343;28;8851;-57
2023/10/29 08:49:36;;;;;;;;;0.00;0.00;;;;;15.59;72.91;97803.50;5076583;28;8873;-58
2023/10/29 08:52:04;;;;;;;;;0.00;0.00;;;;;15.60;72.22;97789.06;5076131;28;8858;-59
2023/10/29 08:54:32;;;;;;;;;0.00;0.00;;;;;15.62;72.83;97816.53;5076251;28;8844;-58
2023/10/29 08:56:59;;;;;;;;;0.00;0.00;;;;;15.64;72.09;97830.56;5076326;28;8883;-57
2023/10/29 08:59:27;;;;;;;;;0.00;0.00;;;;;15.65;72.11;97832.22;5075755;28;8863;-56
2023/10/29 09:01:55;;;;;;;;;0.00;0.00;;;;;15.69;72.44;97814.69;5075826;28;8832;-58
2023/10/29 09:04:23;;;;;;;;;0.00;0.00;;;;;15.71;72.41;97826.03;5075654;28;8852;-58
2023/10/29 09:06:51;;;;;;;;;0.00;0.00;;;;;15.71;72.42;97834.06;5075985;28;8836;-57
2023/10/29 09:09:19;;;;;;;;;0.00;0.00;;;;;15.70;71.64;97838.59;5076394;28;8841;-57
2023/10/29 09:11:49;;;;;;;;;0.00;0.00;;;;;15.69;72.12;97852.25;5059028;28;9607;-60
2023/10/29 09:14:17;;;;;;;;;0.00;0.00;;;;;15.70;71.58;97843.97;5056001;28;8870;-60
2023/10/29 09:16:47;;;;;;;;;0.00;0.00;;;;;15.72;71.91;97846.47;5055487;28;8830;-57
2023/10/29 09:19:15;;;;;;;;;0.00;0.00;;;;;15.72;71.51;97855.34;5055024;28;8834;-57
2023/10/29 09:21:44;;;;;;;;;0.00;0.00;;;;;15.71;71.49;97850.97;5055612;28;8932;-58
2023/10/29 09:24:12;;;;;;;;;0.00;0.00;;;;;15.71;72.04;97877.00;5055496;28;8822;-58
2023/10/29 09:26:41;;;;;;;;;0.20;0.00;;;;;15.68;72.01;97855.94;5055461;28;8834;-59
2023/10/29 09:29:09;;;;;;;;;0.00;0.00;;;;;15.66;71.72;97866.91;5056043;28;8844;-58
2023/10/29 09:31:37;;;;;;;;;0.00;0.00;;;;;15.64;71.78;97878.84;5056085;28;8810;-59
2023/10/29 09:34:04;;;;;;;;;0.00;0.00;;;;;15.64;71.96;97881.53;5056223;28;8844;-58
2023/10/29 09:36:33;;;;;;;;;0.00;0.00;;;;;15.64;71.78;97886.91;5055839;28;8822;-60
2023/10/29 09:39:01;;;;;;;;;0.00;0.00;;;;;15.66;71.85;97890.22;5056294;28;8834;-58
2023/10/29 09:41:29;;;;;;;;;0.00;0.00;;;;;15.67;71.74;97907.97;5055574;28;8849;-58
2023/10/29 09:43:57;;;;;;;;;0.00;0.00;;;;;15.68;71.78;97899.72;5055481;28;8931;-57
2023/10/29 09:46:24;;;;;;;;;0.00;0.00;;;;;15.73;71.73;97896.41;5056039;28;8864;-57
2023/10/29 09:48:52;;;;;;;;;0.00;0.00;;;;;15.81;71.36;97897.06;5066616;28;8954;-57
2023/10/29 09:51:21;;;;;;;;;0.00;0.00;;;;;15.93;71.16;97903.44;5076000;28;9470;-58
2023/10/29 09:53:49;;;;;;;;;0.00;0.00;;;;;15.96;70.61;97896.84;5075892;28;9813;-58
2023/10/29 09:56:17;;;;;;;;;0.80;0.80;;;;;15.96;71.09;97912.97;5075672;28;8828;-58
2023/10/29 09:58:45;;;;;;;;;0.00;0.00;;;;;15.95;70.98;97893.34;5075882;28;8832;-57
2023/10/29 10:01:14;;;;;;;;;0.00;0.00;;;;;15.91;70.76;97877.88;5076032;28;8824;-58
2023/10/29 10:03:42;;;;;;;;;0.00;0.00;;;;;15.85;70.96;97874.13;5076079;28;8824;-57
2023/10/29 10:06:10;;;;;;;;;0.00;0.00;;;;;15.80;71.22;97870.41;5075880;28;8824;-58
2023/10/29 10:08:38;;;;;;;;;0.00;0.00;;;;;15.74;71.01;97860.50;5075651;28;8859;-58
2023/10/29 10:11:07;;;;;;;;;0.00;0.00;;;;;15.70;71.87;97870.81;5074849;28;8816;-58
2023/10/29 10:13:35;;;;;;;;;0.00;0.00;;;;;15.68;71.31;97866.66;5075293;28;8828;-57
2023/10/29 10:16:03;;;;;;;;;0.00;0.00;;;;;15.68;71.30;97872.03;5075698;28;8909;-58
2023/10/29 10:18:31;;;;;;;;;0.00;0.00;;;;;15.70;71.54;97886.09;5075526;28;8836;-59
2023/10/29 10:21:00;;;;;;;;;0.00;0.00;;;;;16.16;70.72;97878.91;5075525;28;8847;-58
2023/10/29 10:23:28;;;;;;;;;0.00;0.00;;;;;16.76;69.70;97874.88;5075555;28;8832;-59
2023/10/29 10:25:56;;;;;;;;;0.00;0.00;;;;;17.11;68.92;97861.94;5075275;28;8847;-58
2023/10/29 10:28:24;;;;;;;;;0.00;0.00;;;;;17.17;67.95;97866.47;5075169;28;8824;-59
2023/10/29 10:30:52;;;;;;;;;0.00;0.00;;;;;17.11;68.41;97895.03;5075616;28;8843;-59
2023/10/29 10:33:20;;;;;;;;;0.00;0.00;;;;;17.02;68.34;97882.84;5074906;28;8920;-60
2023/10/29 10:35:50;;;;;;;;;0.00;0.00;;;;;16.89;68.86;97882.91;5075157;28;8925;-57
2023/10/29 10:38:20;;;;;;;;;0.00;0.00;;;;;16.70;69.43;97880.28;5075284;28;8847;-58
2023/10/29 10:40:49;;;;;;;;;0.00;0.00;;;;;16.55;69.64;97888.56;5075106;28;8840;-59
2023/10/29 10:43:17;;;;;;;;;0.00;0.00;;;;;16.51;69.88;97895.41;5075208;28;8962;-59
2023/10/29 10:45:45;;;;;;;;;0.00;0.00;;;;;16.52;70.04;97888.16;5075409;28;9013;-59
2023/10/29 10:48:13;;;;;;;;;0.00;0.00;;;;;16.49;70.03;97893.97;5075018;28;8835;-58
2023/10/29 10:50:41;;;;;;;;;0.00;0.00;;;;;16.45;69.70;97893.56;5075251;28;8843;-60
2023/10/29 10:53:11;;;;;;;;;0.00;0.00;;;;;16.42;70.33;97891.28;5078560;28;8847;-57
2023/10/29 10:55:39;;;;;;;;;1.00;0.00;;;;;16.42;69.88;97872.47;5078796;28;8847;-58
2023/10/29 10:58:27;;;;;;;;;0.00;0.00;;;;;16.41;70.23;97865.44;5078755;28;8848;-58
2023/10/29 11:00:55;;;;;;;;;0.00;0.00;;;;;16.50;70.38;97866.88;5078036;28;8855;-56
2023/10/29 11:03:23;;;;;;;;;0.00;0.00;;;;;16.61;69.55;97874.31;5077121;28;8839;-59
2023/10/29 11:05:59;;;;;;;;;0.00;0.00;;;;;16.59;69.33;97878.22;5077202;28;8869;-60
2023/10/29 11:08:27;;;;;;;;;0.00;0.00;;;;;16.41;70.23;97886.94;5077559;28;8850;-58
2023/10/29 11:10:54;;;;;;;;;0.00;0.00;;;;;16.22;70.13;97903.06;5077823;28;8842;-57
2023/10/29 11:13:23;;;;;;;;;0.00;0.00;;;;;16.11;70.63;97897.47;5078113;28;8835;-60
2023/10/29 11:15:50;;;;;;;;;0.00;0.00;;;;;16.04;70.82;97877.84;5077548;28;9522;-57
2023/10/29 11:18:18;;;;;;;;;0.00;0.00;;;;;16.01;70.80;97883.66;5077936;28;8839;-58
2023/10/29 11:20:46;;;;;;;;;0.00;0.00;;;;;15.99;71.28;97885.72;5077863;28;8840;-58
2023/10/29 11:23:14;;;;;;;;;0.80;0.00;;;;;15.98;70.87;97889.41;5078380;28;8893;-59
2023/10/29 11:25:42;;;;;;;;;0.00;0.00;;;;;15.97;70.63;97895.81;5077678;28;8828;-57
2023/10/29 11:28:11;;;;;;;;;0.00;0.00;;;;;16.00;70.58;97892.75;5077949;28;8828;-60
2023/10/29 11:30:39;;;;;;;;;0.00;0.00;;;;;16.00;70.87;97888.16;5078653;28;8834;-57
2023/10/29 11:33:07;;;;;;;;;0.00;0.00;;;;;15.99;70.77;97885.72;5078268;28;8824;-58
2023/10/29 11:35:36;;;;;;;;;0.00;0.00;;;;;15.97;70.80;97887.75;5078117;28;8885;-58
2023/10/29 11:38:03;;;;;;;;;0.00;0.00;;;;;15.95;70.68;97882.63;5078008;28;9575;-58
2023/10/29 11:40:30;;;;;;;;;0.00;0.00;;;;;15.92;70.71;97901.81;5077844;28;8843;-58
2023/10/29 11:42:58;;;;;;;;;0.00;0.00;;;;;15.83;71.22;97896.81;5077891;28;8846;-58
2023/10/29 11:45:26;;;;;;;;;0.00;0.00;;;;;15.67;71.45;97908.81;5077396;28;8926;-59